createdAt,value
2018-11-22T00:00:57.347Z,-1
2018-11-22T00:02:07.409Z,-1.01
2018-11-22T00:03:17.423Z,-1.06
2018-11-22T00:04:27.440Z,-1.18
2018-11-22T00:05:37.453Z,-1
2018-11-22T00:06:47.466Z,-1.06
2018-11-22T00:07:57.531Z,-1.07
2018-11-22T00:09:07.547Z,-1.17
2018-11-22T00:10:17.558Z,-1.11
2018-11-22T00:11:27.570Z,-1.04
2018-11-22T00:12:37.587Z,-1.12
2018-11-22T00:13:47.648Z,-1.04
2018-11-22T00:14:57.664Z,-1.07
2018-11-22T00:16:07.697Z,-1.01
2018-11-22T00:17:17.709Z,-1.03
2018-11-22T00:18:27.720Z,-1.15
2018-11-22T00:19:37.832Z,-1.01
2018-11-22T00:20:47.842Z,-0.97
2018-11-22T00:21:57.850Z,-0.99
2018-11-22T00:23:07.876Z,-1.06
2018-11-22T00:24:17.892Z,-1.04
2018-11-22T00:25:28.057Z,-0.96
2018-11-22T00:26:38.071Z,-1.03
2018-11-22T00:27:48.083Z,-0.91
2018-11-22T00:28:58.093Z,-0.85
2018-11-22T00:30:07.863Z,-0.8
2018-11-22T00:31:17.935Z,-0.93
2018-11-22T00:32:27.948Z,-0.87
2018-11-22T00:33:37.957Z,-0.91
2018-11-22T00:34:47.968Z,-0.87
2018-11-22T00:35:57.981Z,-0.89
2018-11-22T00:37:08.047Z,-0.85
2018-11-22T00:38:18.096Z,-0.89
2018-11-22T00:39:28.111Z,-0.89
2018-11-22T00:40:38.121Z,-0.85
2018-11-22T00:41:48.130Z,-0.87
2018-11-22T00:42:57.926Z,-0.91
2018-11-22T00:44:07.937Z,-0.85
2018-11-22T00:45:17.949Z,-0.85
2018-11-22T00:46:27.969Z,-0.85
2018-11-22T00:47:37.984Z,-0.94
2018-11-22T00:48:49.293Z,-0.87
2018-11-22T00:49:59.304Z,-0.87
2018-11-22T00:51:09.330Z,-1
2018-11-22T00:52:19.340Z,-1
2018-11-22T00:53:29.349Z,-0.87
2018-11-22T00:54:39.541Z,-0.96
2018-11-22T00:55:49.550Z,-0.94
2018-11-22T00:56:59.569Z,-0.94
2018-11-22T00:58:09.583Z,-0.97
2018-11-22T00:59:19.597Z,-1.01
2018-11-22T01:00:29.761Z,-1.03
2018-11-22T01:01:39.772Z,-1.09
2018-11-22T01:02:49.829Z,-1.06
2018-11-22T01:03:59.842Z,-1.14
2018-11-22T01:05:09.858Z,-1.11
2018-11-22T01:06:20.017Z,-1.04
2018-11-22T01:07:30.034Z,-1.12
2018-11-22T01:08:40.056Z,-1.21
2018-11-22T01:09:49.798Z,-1.18
2018-11-22T01:10:59.544Z,-1.25
2018-11-22T01:12:09.609Z,-1.24
2018-11-22T01:13:19.623Z,-1.4
2018-11-22T01:14:29.633Z,-1.45
2018-11-22T01:15:39.642Z,-1.3
2018-11-22T01:16:49.663Z,-1.3
2018-11-22T01:17:59.722Z,-1.24
2018-11-22T01:19:09.748Z,-1.25
2018-11-22T01:20:19.761Z,-1.3
2018-11-22T01:23:23.699Z,-1.32
2018-11-22T01:24:33.710Z,-1.29
2018-11-22T01:25:43.728Z,-1.21
2018-11-22T01:26:53.742Z,-1.27
2018-11-22T01:28:03.755Z,-1.21
2018-11-22T01:29:13.819Z,-1.19
2018-11-22T01:30:23.833Z,-1.21
2018-11-22T01:31:33.846Z,-1.32
2018-11-22T01:32:43.867Z,-1.29
2018-11-22T01:33:53.876Z,-1.35
2018-11-22T01:35:03.944Z,-1.27
2018-11-22T01:36:13.954Z,-1.35
2018-11-22T01:37:23.965Z,-1.3
2018-11-22T01:38:33.976Z,-1.18
2018-11-22T01:39:43.999Z,-1.19
2018-11-22T01:40:54.057Z,-1.21
2018-11-22T01:42:04.070Z,-1.21
2018-11-22T01:43:14.080Z,-1.3
2018-11-22T01:44:24.087Z,-1.3
2018-11-22T01:45:34.102Z,-1.32
2018-11-22T01:46:44.162Z,-1.29
2018-11-22T01:47:54.177Z,-1.29
2018-11-22T01:49:04.197Z,-1.38
2018-11-22T01:50:14.208Z,-1.36
2018-11-22T01:51:24.223Z,-1.32
2018-11-22T01:52:34.278Z,-1.3
2018-11-22T01:53:44.299Z,-1.42
2018-11-22T01:54:54.312Z,-1.29
2018-11-22T01:56:04.327Z,-1.25
2018-11-22T01:57:14.334Z,-1.25
2018-11-22T01:58:24.447Z,-1.25
2018-11-22T01:59:34.460Z,-1.18
2018-11-22T02:00:44.471Z,-1.25
2018-11-22T02:01:54.481Z,-1.18
2018-11-22T02:03:04.508Z,-1.21
2018-11-22T02:04:14.628Z,-1.22
2018-11-22T02:05:24.643Z,-1.22
2018-11-22T02:06:34.659Z,-1.22
2018-11-22T02:07:44.672Z,-1.19
2018-11-22T02:08:54.681Z,-1.3
2018-11-22T02:10:04.747Z,-1.21
2018-11-22T02:11:14.756Z,-1.15
2018-11-22T02:12:24.774Z,-1.19
2018-11-22T02:13:34.783Z,-1.24
2018-11-22T02:14:44.799Z,-1.12
2018-11-22T02:15:54.910Z,-1.22
2018-11-22T02:17:04.921Z,-1.24
2018-11-22T02:18:14.932Z,-1.21
2018-11-22T02:19:24.945Z,-1.15
2018-11-22T02:20:34.998Z,-1.21
2018-11-22T02:21:45.164Z,-1.15
2018-11-22T02:22:55.175Z,-1.15
2018-11-22T02:24:05.191Z,-1.18
2018-11-22T02:25:15.204Z,-1.15
2018-11-22T02:26:25.220Z,-1.19
2018-11-22T02:27:35.284Z,-1.22
2018-11-22T02:28:45.297Z,-1.24
2018-11-22T02:29:55.313Z,-1.24
2018-11-22T02:31:05.339Z,-1.24
2018-11-22T02:32:15.351Z,-1.18
2018-11-22T02:33:25.474Z,-1.17
2018-11-22T02:34:35.483Z,-1.14
2018-11-22T02:35:45.226Z,-1.04
2018-11-22T02:36:55.239Z,-1.07
2018-11-22T02:38:05.263Z,-1.07
2018-11-22T02:39:15.333Z,-1.07
2018-11-22T02:40:25.351Z,-1.11
2018-11-22T02:41:35.096Z,-1.14
2018-11-22T02:42:45.112Z,-1.07
2018-11-22T02:43:55.136Z,-1.14
2018-11-22T02:45:05.199Z,-1.11
2018-11-22T02:46:15.219Z,-1.09
2018-11-22T02:47:25.242Z,-1.18
2018-11-22T02:48:35.257Z,-1.17
2018-11-22T02:49:45.269Z,-1.17
2018-11-22T02:50:55.334Z,-1.14
2018-11-22T02:52:05.349Z,-1.17
2018-11-22T02:53:15.359Z,-1.11
2018-11-22T02:54:25.394Z,-1.15
2018-11-22T02:55:35.407Z,-1.09
2018-11-22T02:56:45.432Z,-1.11
2018-11-22T02:57:55.443Z,-1.12
2018-11-22T02:59:05.466Z,-1.04
2018-11-22T03:00:15.482Z,-1.12
2018-11-22T03:01:25.539Z,-1.09
2018-11-22T03:02:35.607Z,-1.12
2018-11-22T03:03:45.620Z,-1.17
2018-11-22T03:04:55.637Z,-1.14
2018-11-22T03:06:05.646Z,-1.09
2018-11-22T03:07:15.675Z,-1.11
2018-11-22T03:08:25.787Z,-1.24
2018-11-22T03:09:35.547Z,-1.3
2018-11-22T03:10:45.562Z,-1.3
2018-11-22T03:11:55.575Z,-1.32
2018-11-22T03:13:05.610Z,-1.32
2018-11-22T03:14:15.730Z,-1.39
2018-11-22T03:15:25.740Z,-1.36
2018-11-22T03:16:35.754Z,-1.3
2018-11-22T03:17:45.765Z,-1.38
2018-11-22T03:18:55.779Z,-1.35
2018-11-22T03:20:05.864Z,-1.38
2018-11-22T03:21:15.881Z,-1.3
2018-11-22T03:22:25.893Z,-1.39
2018-11-22T03:23:35.908Z,-1.3
2018-11-22T03:24:45.916Z,-1.4
2018-11-22T03:25:55.976Z,-1.45
2018-11-22T03:27:05.992Z,-1.45
2018-11-22T03:28:16.014Z,-1.42
2018-11-22T03:29:26.030Z,-1.45
2018-11-22T03:30:36.044Z,-1.45
2018-11-22T03:31:46.145Z,-1.39
2018-11-22T03:32:56.168Z,-1.45
2018-11-22T03:34:06.198Z,-1.4
2018-11-22T03:35:16.216Z,-1.43
2018-11-22T03:36:25.964Z,-1.43
2018-11-22T03:37:36.076Z,-1.42
2018-11-22T03:38:46.096Z,-1.51
2018-11-22T03:39:56.108Z,-1.54
2018-11-22T03:41:06.133Z,-1.71
2018-11-22T03:42:16.155Z,-1.75
2018-11-22T03:43:26.271Z,-1.71
2018-11-22T03:44:36.287Z,-1.75
2018-11-22T03:45:46.304Z,-1.75
2018-11-22T03:46:56.315Z,-1.81
2018-11-22T03:48:06.335Z,-1.81
2018-11-22T03:49:16.401Z,-1.87
2018-11-22T03:50:26.429Z,-1.87
2018-11-22T03:51:36.180Z,-1.9
2018-11-22T03:52:46.198Z,-1.99
2018-11-22T03:53:56.212Z,-2.05
2018-11-22T03:55:06.275Z,-2.05
2018-11-22T03:56:16.288Z,-2.1
2018-11-22T03:57:26.294Z,-2.1
2018-11-22T03:58:36.305Z,-2.07
2018-11-22T03:59:46.323Z,-1.97
2018-11-22T04:00:56.486Z,-2.04
2018-11-22T04:02:06.507Z,-1.94
2018-11-22T04:03:16.256Z,-1.93
2018-11-22T04:04:26.268Z,-1.87
2018-11-22T04:05:36.279Z,-1.81
2018-11-22T04:06:46.342Z,-1.94
2018-11-22T04:07:56.359Z,-1.89
2018-11-22T04:09:06.108Z,-1.9
2018-11-22T04:10:16.129Z,-1.92
2018-11-22T04:11:26.149Z,-2
2018-11-22T04:12:36.313Z,-2.05
2018-11-22T04:13:46.325Z,-2.05
2018-11-22T04:14:56.342Z,-2.04
2018-11-22T04:16:06.362Z,-1.99
2018-11-22T04:17:16.381Z,-2.15
2018-11-22T04:18:26.445Z,-2.17
2018-11-22T04:19:36.469Z,-2.26
2018-11-22T04:20:46.487Z,-2.18
2018-11-22T04:21:56.503Z,-2.25
2018-11-22T04:23:06.518Z,-2.18
2018-11-22T04:24:16.887Z,-2.2
2018-11-22T04:25:26.904Z,-2.2
2018-11-22T04:26:36.918Z,-2.23
2018-11-22T04:27:46.935Z,-2.36
2018-11-22T04:28:56.950Z,-2.33
2018-11-22T04:30:07.025Z,-2.4
2018-11-22T04:31:17.073Z,-2.32
2018-11-22T04:32:27.096Z,-2.51
2018-11-22T04:33:37.111Z,-2.4
2018-11-22T04:34:47.123Z,-2.47
2018-11-22T04:35:57.185Z,-2.54
2018-11-22T04:37:07.218Z,-2.47
2018-11-22T04:38:17.238Z,-2.4
2018-11-22T04:39:27.251Z,-2.36
2018-11-22T04:40:37.274Z,-2.4
2018-11-22T04:41:47.335Z,-2.34
2018-11-22T04:42:57.349Z,-2.36
2018-11-22T04:44:07.375Z,-2.28
2018-11-22T04:45:17.383Z,-2.2
2018-11-22T04:46:27.402Z,-2.25
2018-11-22T04:47:37.461Z,-2.2
2018-11-22T04:48:47.478Z,-2.18
2018-11-22T04:49:57.499Z,-2.29
2018-11-22T04:51:07.526Z,-2.33
2018-11-22T04:52:17.540Z,-2.29
2018-11-22T04:53:27.604Z,-2.39
2018-11-22T04:54:37.348Z,-2.36
2018-11-22T04:55:47.361Z,-2.48
2018-11-22T04:56:57.367Z,-2.45
2018-11-22T04:58:07.381Z,-2.39
2018-11-22T04:59:17.231Z,-2.39
2018-11-22T05:00:27.245Z,-2.54
2018-11-22T05:01:37.266Z,-2.58
2018-11-22T05:02:47.291Z,-2.62
2018-11-22T05:03:57.301Z,-2.66
2018-11-22T05:05:07.365Z,-2.66
2018-11-22T05:06:17.377Z,-2.65
2018-11-22T05:07:27.391Z,-2.78
2018-11-22T05:08:37.405Z,-2.69
2018-11-22T05:09:47.416Z,-2.65
2018-11-22T05:10:57.545Z,-2.68
2018-11-22T05:12:07.553Z,-2.63
2018-11-22T05:13:17.562Z,-2.62
2018-11-22T05:14:27.575Z,-2.58
2018-11-22T05:15:37.585Z,-2.52
2018-11-22T05:16:47.642Z,-2.5
2018-11-22T05:17:57.651Z,-2.52
2018-11-22T05:19:07.668Z,-2.47
2018-11-22T05:20:17.678Z,-2.55
2018-11-22T05:21:27.694Z,-2.42
2018-11-22T05:22:37.754Z,-2.47
2018-11-22T05:23:47.787Z,-2.39
2018-11-22T05:24:57.798Z,-2.45
2018-11-22T05:26:07.826Z,-2.48
2018-11-22T05:27:17.571Z,-2.55
2018-11-22T05:28:27.736Z,-2.42
2018-11-22T05:29:37.747Z,-2.48
2018-11-22T05:30:47.756Z,-2.44
2018-11-22T05:31:57.766Z,-2.42
2018-11-22T05:33:07.783Z,-2.51
2018-11-22T05:34:17.847Z,-2.5
2018-11-22T05:35:27.869Z,-2.42
2018-11-22T05:36:37.876Z,-2.48
2018-11-22T05:37:47.890Z,-2.44
2018-11-22T05:38:57.906Z,-2.44
2018-11-22T05:40:08.079Z,-2.4
2018-11-22T05:41:18.092Z,-2.42
2018-11-22T05:42:28.102Z,-2.45
2018-11-22T05:43:38.113Z,-2.47
2018-11-22T05:44:48.123Z,-2.52
2018-11-22T05:45:58.181Z,-2.44
2018-11-22T05:47:08.196Z,-2.39
2018-11-22T05:48:18.205Z,-2.45
2018-11-22T05:49:28.226Z,-2.4
2018-11-22T05:50:38.237Z,-2.44
2018-11-22T05:51:48.298Z,-2.42
2018-11-22T05:52:58.303Z,-2.52
2018-11-22T05:54:08.046Z,-2.45
2018-11-22T05:55:18.056Z,-2.57
2018-11-22T05:56:28.062Z,-2.61
2018-11-22T05:57:38.124Z,-2.62
2018-11-22T05:58:48.138Z,-2.55
2018-11-22T05:59:58.146Z,-2.65
2018-11-22T06:01:08.159Z,-2.57
2018-11-22T06:02:21.614Z,-2.62
2018-11-22T06:03:31.679Z,-2.57
2018-11-22T06:04:41.733Z,-2.62
2018-11-22T06:05:51.739Z,-2.62
2018-11-22T06:07:01.759Z,-2.62
2018-11-22T06:08:11.796Z,-2.7
2018-11-22T06:09:21.865Z,-2.65
2018-11-22T06:10:31.894Z,-2.65
2018-11-22T06:11:41.907Z,-2.69
2018-11-22T06:12:51.930Z,-2.66
2018-11-22T06:14:01.952Z,-2.7
2018-11-22T06:15:12.020Z,-2.68
2018-11-22T06:16:22.038Z,-2.7
2018-11-22T06:17:32.047Z,-2.75
2018-11-22T06:18:42.058Z,-2.84
2018-11-22T06:19:52.073Z,-2.78
2018-11-22T06:21:02.242Z,-2.81
2018-11-22T06:22:12.288Z,-2.9
2018-11-22T06:23:22.303Z,-2.87
2018-11-22T06:24:32.311Z,-2.86
2018-11-22T06:25:42.332Z,-2.83
2018-11-22T06:26:52.346Z,-2.84
2018-11-22T06:28:02.360Z,-2.89
2018-11-22T06:29:12.370Z,-2.98
2018-11-22T06:30:22.389Z,-3.02
2018-11-22T06:31:32.407Z,-2.98
2018-11-22T06:32:42.467Z,-3.01
2018-11-22T06:33:52.476Z,-2.98
2018-11-22T06:35:03.364Z,-2.99
2018-11-22T06:36:13.377Z,-3.07
2018-11-22T06:37:23.384Z,-3.02
2018-11-22T06:38:33.445Z,-3.05
2018-11-22T06:39:43.471Z,-3.17
2018-11-22T06:40:53.479Z,-3.22
2018-11-22T06:42:03.492Z,-3.38
2018-11-22T06:43:13.503Z,-3.38
2018-11-22T06:44:23.567Z,-3.36
2018-11-22T06:45:33.598Z,-3.3
2018-11-22T06:46:43.607Z,-3.38
2018-11-22T06:47:53.618Z,-3.41
2018-11-22T06:49:03.632Z,-3.37
2018-11-22T06:50:13.693Z,-3.38
2018-11-22T06:51:23.706Z,-3.47
2018-11-22T06:52:33.724Z,-3.46
2018-11-22T06:53:43.747Z,-3.58
2018-11-22T06:54:53.757Z,-3.5
2018-11-22T06:56:03.819Z,-3.48
2018-11-22T06:57:13.829Z,-3.41
2018-11-22T06:58:23.840Z,-3.4
2018-11-22T06:59:33.848Z,-3.41
2018-11-22T07:00:43.861Z,-3.3
2018-11-22T07:01:54.030Z,-3.32
2018-11-22T07:03:04.054Z,-3.36
2018-11-22T07:04:14.087Z,-3.4
2018-11-22T07:05:24.120Z,-3.4
2018-11-22T07:06:34.132Z,-3.41
2018-11-22T07:07:44.245Z,-3.43
2018-11-22T07:08:54.255Z,-3.44
2018-11-22T07:10:04.267Z,-3.48
2018-11-22T07:11:14.281Z,-3.43
2018-11-22T07:12:24.031Z,-3.48
2018-11-22T07:13:34.046Z,-3.53
2018-11-22T07:14:44.059Z,-3.61
2018-11-22T07:15:54.068Z,-3.46
2018-11-22T07:17:04.086Z,-3.51
2018-11-22T07:18:14.100Z,-3.44
2018-11-22T07:19:24.260Z,-3.53
2018-11-22T07:20:34.272Z,-3.5
2018-11-22T07:21:44.289Z,-3.58
2018-11-22T07:22:54.304Z,-3.48
2018-11-22T07:24:04.317Z,-3.58
2018-11-22T07:25:14.389Z,-3.55
2018-11-22T07:26:24.408Z,-3.59
2018-11-22T07:27:38.242Z,-3.62
2018-11-22T07:28:48.101Z,-3.65
2018-11-22T07:29:58.111Z,-3.62
2018-11-22T07:31:08.295Z,-3.68
2018-11-22T07:32:18.302Z,-3.71
2018-11-22T07:33:28.311Z,-3.71
2018-11-22T07:34:43.489Z,-3.71
2018-11-22T07:35:53.501Z,-3.75
2018-11-22T07:37:03.573Z,-3.74
2018-11-22T07:38:13.585Z,-3.74
2018-11-22T07:39:23.592Z,-3.8
2018-11-22T07:40:33.598Z,-3.78
2018-11-22T07:41:43.603Z,-3.8
2018-11-22T07:42:55.264Z,-3.78
2018-11-22T07:44:06.359Z,-3.68
2018-11-22T07:45:16.399Z,-3.64
2018-11-22T07:46:26.413Z,-3.61
2018-11-22T07:47:36.426Z,-3.62
2018-11-22T07:48:46.438Z,-3.55
2018-11-22T07:49:56.447Z,-3.69
2018-11-22T07:51:06.464Z,-3.75
2018-11-22T07:52:16.475Z,-3.69
2018-11-22T07:53:26.489Z,-3.66
2018-11-22T07:54:36.548Z,-3.8
2018-11-22T07:55:46.565Z,-3.77
2018-11-22T07:56:56.570Z,-3.8
2018-11-22T07:58:06.616Z,-3.91
2018-11-22T07:59:16.362Z,-3.91
2018-11-22T08:00:26.427Z,-3.85
2018-11-22T08:01:36.439Z,-3.95
2018-11-22T08:02:46.449Z,-4.04
2018-11-22T08:03:56.460Z,-3.87
2018-11-22T08:05:06.476Z,-3.88
2018-11-22T08:06:16.636Z,-3.98
2018-11-22T08:07:26.653Z,-3.94
2018-11-22T08:08:36.664Z,-3.88
2018-11-22T08:09:46.686Z,-3.95
2018-11-22T08:10:56.700Z,-3.85
2018-11-22T08:12:12.140Z,-3.85
2018-11-22T08:13:22.260Z,-3.9
2018-11-22T08:14:32.268Z,-3.85
2018-11-22T08:15:42.278Z,-3.91
2018-11-22T08:16:52.290Z,-3.88
2018-11-22T08:18:02.357Z,-3.85
2018-11-22T08:19:12.367Z,-4.01
2018-11-22T08:20:22.379Z,-3.95
2018-11-22T08:21:38.259Z,-4.01
2018-11-22T08:22:48.402Z,-3.99
2018-11-22T08:23:58.458Z,-3.98
2018-11-22T08:25:08.473Z,-3.99
2018-11-22T08:26:18.486Z,-4.02
2018-11-22T08:27:28.496Z,-3.96
2018-11-22T08:28:38.504Z,-3.96
2018-11-22T08:29:48.563Z,-3.98
2018-11-22T08:30:58.575Z,-4.04
2018-11-22T08:32:08.582Z,-4.05
2018-11-22T08:33:18.590Z,-4.05
2018-11-22T08:34:28.598Z,-4.01
2018-11-22T08:35:38.660Z,-4.05
2018-11-22T08:36:48.669Z,-4.02
2018-11-22T08:37:58.707Z,-4.01
2018-11-22T08:39:08.472Z,-3.96
2018-11-22T08:40:18.483Z,-3.94
2018-11-22T08:41:28.543Z,-4.02
2018-11-22T08:42:38.555Z,-4.02
2018-11-22T08:43:48.574Z,-3.98
2018-11-22T08:44:58.612Z,-3.99
2018-11-22T08:46:08.626Z,-3.98
2018-11-22T08:47:18.694Z,-4.01
2018-11-22T08:48:28.710Z,-4.02
2018-11-22T08:49:38.725Z,-4.02
2018-11-22T08:50:48.741Z,-3.9
2018-11-22T08:51:58.751Z,-3.91
2018-11-22T08:53:08.545Z,-3.98
2018-11-22T08:54:18.552Z,-3.96
2018-11-22T08:55:28.562Z,-3.95
2018-11-22T08:56:38.574Z,-4.05
2018-11-22T08:57:48.586Z,-3.9
2018-11-22T08:58:58.593Z,-3.95
2018-11-22T09:00:08.608Z,-3.88
2018-11-22T09:01:18.617Z,-3.96
2018-11-22T09:02:28.629Z,-3.95
2018-11-22T09:03:38.644Z,-3.95
2018-11-22T09:04:48.704Z,-3.94
2018-11-22T09:05:58.725Z,-3.95
2018-11-22T09:07:08.737Z,-3.9
2018-11-22T09:08:22.176Z,-3.91
2018-11-22T09:09:32.201Z,-3.88
2018-11-22T09:10:42.261Z,-3.87
2018-11-22T09:11:52.273Z,-3.84
2018-11-22T09:13:02.318Z,-3.87
2018-11-22T09:14:12.336Z,-3.85
2018-11-22T09:15:22.356Z,-3.9
2018-11-22T09:16:38.982Z,-3.9
2018-11-22T09:17:48.989Z,-3.74
2018-11-22T09:18:59.003Z,-3.68
2018-11-22T09:20:09.013Z,-3.66
2018-11-22T09:21:19.022Z,-3.62
2018-11-22T09:22:29.087Z,-3.61
2018-11-22T09:23:43.430Z,-3.51
2018-11-22T09:24:53.441Z,-3.51
2018-11-22T09:26:03.451Z,-3.43
2018-11-22T09:27:13.462Z,-3.4
2018-11-22T09:28:23.629Z,-3.43
2018-11-22T09:29:33.922Z,-3.38
2018-11-22T09:30:47.302Z,-3.3
2018-11-22T09:31:57.320Z,-3.25
2018-11-22T09:33:07.339Z,-3.2
2018-11-22T09:34:17.379Z,-3.11
2018-11-22T09:35:27.733Z,-3.09
2018-11-22T09:36:37.746Z,-3.19
2018-11-22T09:37:47.759Z,-3.09
2018-11-22T09:38:57.769Z,-3.19
2018-11-22T09:40:07.830Z,-3.23
2018-11-22T09:41:17.847Z,-3.2
2018-11-22T09:42:28.183Z,-3.23
2018-11-22T09:43:38.199Z,-3.15
2018-11-22T09:44:48.211Z,-3.15
2018-11-22T09:45:58.277Z,-3.26
2018-11-22T09:47:08.285Z,-3.17
2018-11-22T09:48:18.339Z,-3.2
2018-11-22T09:49:28.353Z,-3.15
2018-11-22T09:50:38.379Z,-3.11
2018-11-22T09:51:48.451Z,-3.11
2018-11-22T09:52:58.455Z,-3.02
2018-11-22T09:54:08.455Z,-3.04
2018-11-22T09:55:18.473Z,-2.96
2018-11-22T09:56:28.478Z,-2.84
2018-11-22T09:57:38.586Z,-2.89
2018-11-22T09:58:48.593Z,-2.83
2018-11-22T09:59:58.604Z,-2.81
2018-11-22T10:01:08.623Z,-2.73
2018-11-22T10:02:18.637Z,-2.75
2018-11-22T10:03:28.651Z,-2.75
2018-11-22T10:04:38.924Z,-2.66
2018-11-22T10:05:49.473Z,-2.7
2018-11-22T10:06:59.810Z,-2.69
2018-11-22T10:08:09.832Z,-2.78
2018-11-22T10:09:20.159Z,-2.8
2018-11-22T10:10:30.593Z,-2.76
2018-11-22T10:11:40.607Z,-2.78
2018-11-22T10:12:50.625Z,-2.81
2018-11-22T10:14:00.641Z,-2.81
2018-11-22T10:15:10.658Z,-2.73
2018-11-22T10:16:20.674Z,-2.66
2018-11-22T10:17:30.688Z,-2.72
2018-11-22T10:18:41.091Z,-2.69
2018-11-22T10:19:51.646Z,-2.65
2018-11-22T10:21:01.761Z,-2.65
2018-11-22T10:22:11.778Z,-2.7
2018-11-22T10:23:21.930Z,-2.7
2018-11-22T10:24:32.134Z,-2.7
2018-11-22T10:25:42.150Z,-2.65
2018-11-22T10:26:52.161Z,-2.58
2018-11-22T10:28:01.916Z,-2.42
2018-11-22T10:29:12.002Z,-2.34
2018-11-22T10:30:22.623Z,-2.22
2018-11-22T10:31:33.153Z,-2.02
2018-11-22T10:32:43.649Z,-1.9
2018-11-22T10:33:53.666Z,-1.87
2018-11-22T10:35:03.738Z,-1.72
2018-11-22T10:36:13.907Z,-1.48
2018-11-22T10:37:23.924Z,-1.43
2018-11-22T10:38:34.155Z,-1.45
2018-11-22T10:39:44.205Z,-1.24
2018-11-22T10:40:54.242Z,-1.17
2018-11-22T10:42:04.287Z,-1.03
2018-11-22T10:43:14.325Z,-0.87
2018-11-22T10:44:24.358Z,-0.72
2018-11-22T10:45:34.378Z,-0.57
2018-11-22T10:46:44.395Z,-0.44
2018-11-22T10:47:54.411Z,-0.41
2018-11-22T10:49:04.429Z,-0.33
2018-11-22T10:50:14.874Z,-0.21
2018-11-22T10:51:24.894Z,-0.02
2018-11-22T10:52:34.912Z,0.2
2018-11-22T10:53:44.934Z,0.37
2018-11-22T10:54:54.950Z,0.47
2018-11-22T10:56:04.970Z,0.67
2018-11-22T10:57:14.995Z,0.89
2018-11-22T10:58:25.018Z,1.07
2018-11-22T10:59:35.035Z,1.22
2018-11-22T11:00:45.057Z,1.48
2018-11-22T11:01:55.123Z,1.63
2018-11-22T11:03:05.153Z,1.84
2018-11-22T11:04:15.173Z,2.05
2018-11-22T11:05:25.200Z,2.28
2018-11-22T11:06:35.224Z,2.51
2018-11-22T11:07:45.295Z,2.73
2018-11-22T11:08:55.326Z,2.9
2018-11-22T11:10:05.365Z,3.08
2018-11-22T11:11:15.383Z,3.33
2018-11-22T11:12:30.413Z,3.45
2018-11-22T11:13:40.487Z,3.61
2018-11-22T11:14:50.504Z,3.74
2018-11-22T11:16:00.424Z,3.86
2018-11-22T11:17:10.491Z,3.99
2018-11-22T11:18:20.516Z,4.24
2018-11-22T11:19:30.560Z,4.46
2018-11-22T11:20:40.587Z,4.52
2018-11-22T11:21:50.615Z,4.4
2018-11-22T11:23:00.635Z,4.52
2018-11-22T11:24:10.427Z,4.7
2018-11-22T11:25:20.450Z,4.63
2018-11-22T11:26:30.516Z,4.63
2018-11-22T11:27:40.542Z,4.74
2018-11-22T11:28:50.565Z,4.97
2018-11-22T11:30:00.585Z,5.1
2018-11-22T11:31:10.616Z,5.33
2018-11-22T11:32:20.649Z,5.52
2018-11-22T11:33:30.681Z,5.62
2018-11-22T11:34:40.705Z,5.72
2018-11-22T11:35:50.727Z,5.74
2018-11-22T11:37:00.759Z,5.65
2018-11-22T11:38:10.781Z,5.94
2018-11-22T11:39:20.804Z,5.8
2018-11-22T11:40:30.823Z,5.76
2018-11-22T11:41:40.849Z,5.69
2018-11-22T11:42:50.868Z,5.67
2018-11-22T11:44:00.892Z,5.59
2018-11-22T11:45:10.664Z,5.46
2018-11-22T11:46:20.684Z,5.47
2018-11-22T11:47:30.717Z,5.49
2018-11-22T11:48:40.739Z,5.55
2018-11-22T11:49:50.761Z,5.59
2018-11-22T11:51:00.796Z,5.7
2018-11-22T11:52:10.828Z,5.79
2018-11-22T11:53:27.147Z,5.94
2018-11-22T11:54:51.129Z,5.94
2018-11-22T11:56:01.163Z,6.01
2018-11-22T11:57:11.189Z,6.16
2018-11-22T11:58:21.252Z,6.39
2018-11-22T11:59:31.372Z,6.38
2018-11-22T12:00:41.393Z,6.34
2018-11-22T12:01:51.418Z,6.13
2018-11-22T12:03:01.440Z,6.05
2018-11-22T12:04:11.470Z,6.01
2018-11-22T12:05:21.494Z,5.81
2018-11-22T12:06:31.589Z,5.91
2018-11-22T12:07:41.898Z,5.83
2018-11-22T12:08:51.938Z,5.7
2018-11-22T12:10:01.980Z,5.79
2018-11-22T12:11:11.747Z,5.58
2018-11-22T12:12:21.769Z,5.54
2018-11-22T12:13:31.795Z,5.77
2018-11-22T12:14:41.827Z,6.01
2018-11-22T12:15:51.247Z,6.29
2018-11-22T12:17:01.370Z,6.57
2018-11-22T12:18:11.411Z,6.75
2018-11-22T12:19:21.444Z,6.92
2018-11-22T12:20:31.481Z,6.89
2018-11-22T12:21:41.562Z,6.89
2018-11-22T12:22:51.356Z,6.89
2018-11-22T12:24:01.393Z,6.92
2018-11-22T12:25:11.444Z,7.03
2018-11-22T12:26:21.488Z,7.08
2018-11-22T12:27:31.519Z,7.1
2018-11-22T12:28:41.542Z,6.89
2018-11-22T12:29:51.568Z,7.04
2018-11-22T12:31:08.954Z,7.05
2018-11-22T12:32:18.991Z,6.97
2018-11-22T12:33:29.029Z,7.1
2018-11-22T12:34:39.059Z,7.18
2018-11-22T12:35:49.093Z,7.29
2018-11-22T12:36:59.121Z,7.13
2018-11-22T12:38:09.161Z,7.39
2018-11-22T12:39:19.187Z,7.14
2018-11-22T12:40:29.226Z,7.11
2018-11-22T12:41:39.254Z,7.04
2018-11-22T12:42:49.281Z,7.14
2018-11-22T12:43:59.309Z,7.14
2018-11-22T12:45:09.344Z,7.21
2018-11-22T12:46:19.424Z,7.25
2018-11-22T12:47:29.447Z,7.26
2018-11-22T12:48:39.474Z,7.29
2018-11-22T12:49:49.507Z,7.26
2018-11-22T12:50:59.538Z,7.23
2018-11-22T12:52:09.626Z,7.37
2018-11-22T12:53:19.658Z,7.1
2018-11-22T12:54:29.688Z,7.22
2018-11-22T12:55:39.715Z,7.1
2018-11-22T12:56:49.749Z,7.04
2018-11-22T12:57:59.776Z,7.11
2018-11-22T12:59:09.805Z,7.15
2018-11-22T13:00:19.586Z,7.19
2018-11-22T13:01:29.613Z,7.08
2018-11-22T13:02:39.642Z,6.86
2018-11-22T13:03:50.172Z,6.85
2018-11-22T13:05:00.285Z,6.64
2018-11-22T13:06:10.340Z,6.52
2018-11-22T13:07:20.404Z,6.44
2018-11-22T13:08:30.437Z,6.13
2018-11-22T13:09:40.213Z,5.97
2018-11-22T13:10:50.239Z,5.84
2018-11-22T13:12:00.265Z,5.61
2018-11-22T13:13:10.299Z,5.47
2018-11-22T13:14:20.327Z,5.19
2018-11-22T13:15:30.351Z,5.04
2018-11-22T13:16:40.386Z,4.76
2018-11-22T13:17:50.407Z,4.42
2018-11-22T13:19:04.138Z,4.25
2018-11-22T13:20:14.916Z,3.81
2018-11-22T13:21:24.960Z,3.68
2018-11-22T13:22:34.983Z,3.46
2018-11-22T13:23:45.008Z,3.22
2018-11-22T13:24:54.775Z,3.22
2018-11-22T13:26:04.799Z,3.05
2018-11-22T13:27:14.935Z,2.97
2018-11-22T13:28:24.957Z,2.9
2018-11-22T13:29:34.992Z,2.64
2018-11-22T13:30:45.022Z,2.51
2018-11-22T13:31:55.050Z,2.32
2018-11-22T13:33:04.827Z,2.16
2018-11-22T13:34:14.854Z,2.01
2018-11-22T13:35:24.874Z,1.82
2018-11-22T13:36:34.902Z,1.82
2018-11-22T13:37:44.923Z,1.57
2018-11-22T13:38:54.996Z,1.46
2018-11-22T13:40:05.021Z,1.38
2018-11-22T13:41:15.046Z,1.22
2018-11-22T13:42:26.174Z,1.07
2018-11-22T13:43:36.231Z,0.84
2018-11-22T13:44:46.300Z,0.66
2018-11-22T13:45:56.062Z,0.51
2018-11-22T13:47:06.087Z,0.45
2018-11-22T13:48:16.113Z,0.37
2018-11-22T13:49:26.140Z,0.29
2018-11-22T13:50:41.881Z,0.15
2018-11-22T13:51:52.078Z,0.12
2018-11-22T13:53:01.840Z,0.05
2018-11-22T13:54:11.853Z,0
2018-11-22T13:55:21.874Z,-0.13
2018-11-22T13:56:31.889Z,-0.24
2018-11-22T13:57:41.910Z,-0.31
2018-11-22T13:58:51.931Z,-0.41
2018-11-22T14:00:03.065Z,-0.41
2018-11-22T14:01:13.082Z,-0.46
2018-11-22T14:02:23.163Z,-0.44
2018-11-22T14:03:33.184Z,-0.46
2018-11-22T14:04:43.203Z,-0.36
2018-11-22T14:05:53.218Z,-0.48
2018-11-22T14:07:03.230Z,-0.44
2018-11-22T14:08:13.401Z,-0.54
2018-11-22T14:09:23.416Z,-0.66
2018-11-22T14:10:33.433Z,-0.62
2018-11-22T14:11:43.464Z,-0.69
2018-11-22T14:12:53.526Z,-0.75
2018-11-22T14:14:03.645Z,-0.7
2018-11-22T14:15:13.665Z,-0.78
2018-11-22T14:16:23.699Z,-0.84
2018-11-22T14:17:33.719Z,-0.94
2018-11-22T14:18:43.746Z,-0.97
2018-11-22T14:19:53.911Z,-1.03
2018-11-22T14:21:03.930Z,-1.09
2018-11-22T14:22:13.952Z,-1.17
2018-11-22T14:23:23.973Z,-1.15
2018-11-22T14:24:33.988Z,-1.25
2018-11-22T14:25:49.077Z,-1.12
2018-11-22T14:26:59.342Z,-1.22
2018-11-22T14:28:09.365Z,-1.21
2018-11-22T14:29:19.376Z,-1.17
2018-11-22T14:30:29.400Z,-1.15
2018-11-22T14:31:39.570Z,-1.15
2018-11-22T14:32:49.626Z,-1.18
2018-11-22T14:33:59.408Z,-1.18
2018-11-22T14:35:09.440Z,-1.21
2018-11-22T14:36:19.459Z,-1.15
2018-11-22T14:37:29.532Z,-1.21
2018-11-22T14:38:39.550Z,-1.24
2018-11-22T14:39:49.563Z,-1.25
2018-11-22T14:40:59.574Z,-1.35
2018-11-22T14:42:09.608Z,-1.33
2018-11-22T14:43:19.684Z,-1.3
2018-11-22T14:44:29.698Z,-1.35
2018-11-22T14:45:39.721Z,-1.39
2018-11-22T14:46:49.739Z,-1.45
2018-11-22T14:47:59.753Z,-1.43
2018-11-22T14:49:09.924Z,-1.5
2018-11-22T14:50:19.985Z,-1.56
2018-11-22T14:51:30.006Z,-1.54
2018-11-22T14:52:40.026Z,-1.66
2018-11-22T14:53:50.040Z,-1.68
2018-11-22T14:55:00.113Z,-1.71
2018-11-22T14:56:10.170Z,-1.74
2018-11-22T14:57:20.188Z,-1.79
2018-11-22T14:58:30.218Z,-1.93
2018-11-22T14:59:40.232Z,-1.92
2018-11-22T15:00:50.297Z,-2
2018-11-22T15:02:00.317Z,-1.97
2018-11-22T15:03:10.334Z,-1.99
2018-11-22T15:04:20.359Z,-1.97
2018-11-22T15:05:30.624Z,-1.96
2018-11-22T15:06:40.738Z,-2.02
2018-11-22T15:07:50.750Z,-2.08
2018-11-22T15:09:00.824Z,-2.15
2018-11-22T15:10:10.847Z,-2.23
2018-11-22T15:11:20.859Z,-2.2
2018-11-22T15:12:30.975Z,-2.17
2018-11-22T15:13:40.987Z,-2.22
2018-11-22T15:14:50.999Z,-2.29
2018-11-22T15:16:01.018Z,-2.29